createdAt,value
2018-08-09T00:00:07.357Z,23.40
2018-08-09T00:02:35.308Z,23.40
2018-08-09T00:05:03.563Z,23.40
2018-08-09T00:07:31.336Z,23.40
2018-08-09T00:09:59.073Z,23.30
2018-08-09T00:12:26.879Z,23.40
2018-08-09T00:14:54.740Z,23.40
2018-08-09T00:17:22.576Z,23.40
2018-08-09T00:19:50.392Z,23.30
2018-08-09T00:22:18.149Z,23.30
2018-08-09T00:27:30.808Z,23.10
2018-08-09T00:29:58.545Z,23.00
2018-08-09T00:32:26.327Z,22.80
2018-08-09T00:34:54.152Z,22.70
2018-08-09T00:37:21.907Z,22.60
2018-08-09T00:39:49.664Z,22.50
2018-08-09T00:42:17.465Z,22.40
2018-08-09T00:44:45.336Z,22.40
2018-08-09T00:47:13.281Z,22.50
2018-08-09T00:49:41.055Z,22.60
2018-08-09T00:52:08.920Z,22.70
2018-08-09T00:54:36.754Z,22.70
2018-08-09T00:57:04.567Z,22.70
2018-08-09T00:59:32.340Z,22.90
2018-08-09T01:02:00.149Z,22.90
2018-08-09T01:04:27.999Z,23.00
2018-08-09T01:06:55.768Z,23.00
2018-08-09T01:09:23.572Z,22.80
2018-08-09T01:11:51.340Z,22.70
2018-08-09T01:14:19.101Z,22.60
2018-08-09T01:16:46.876Z,22.70
2018-08-09T01:19:14.685Z,22.50
2018-08-09T01:21:42.568Z,22.60
2018-08-09T01:24:10.312Z,22.50
2018-08-09T01:26:38.096Z,22.50
2018-08-09T01:29:05.900Z,22.50
2018-08-09T01:31:36.532Z,22.50
2018-08-09T01:34:10.804Z,22.60
2018-08-09T01:36:39.979Z,22.70
2018-08-09T01:39:09.593Z,22.60
2018-08-09T01:41:37.404Z,22.50
2018-08-09T01:44:11.066Z,22.40
2018-08-09T01:46:38.861Z,22.60
2018-08-09T01:49:06.636Z,22.60
2018-08-09T01:51:34.368Z,22.80
2018-08-09T01:54:02.326Z,22.90
2018-08-09T01:56:30.141Z,22.80
2018-08-09T01:58:57.985Z,22.80
2018-08-09T02:04:30.562Z,22.70
2018-08-09T02:12:45.608Z,22.40
2018-08-09T02:15:13.378Z,22.30
2018-08-09T02:17:41.129Z,22.50
2018-08-09T02:20:08.912Z,22.50
2018-08-09T02:22:36.704Z,22.40
2018-08-09T02:25:04.877Z,22.50
2018-08-09T02:27:32.616Z,22.50
2018-08-09T02:30:00.393Z,22.40
2018-08-09T02:32:28.194Z,22.60
2018-08-09T02:34:55.924Z,22.60
2018-08-09T02:37:23.720Z,22.50
2018-08-09T02:39:51.464Z,22.50
2018-08-09T02:42:19.237Z,22.40
2018-08-09T02:44:47.005Z,22.40
2018-08-09T02:47:14.824Z,22.30
2018-08-09T02:49:42.598Z,22.30
2018-08-09T02:52:10.377Z,22.30
2018-08-09T02:54:38.165Z,22.20
2018-08-09T02:57:05.970Z,22.10
2018-08-09T02:59:33.733Z,22.00
2018-08-09T03:02:01.528Z,21.90
2018-08-09T03:04:29.349Z,21.80
2018-08-09T03:06:57.131Z,21.70
2018-08-09T03:09:24.920Z,21.80
2018-08-09T03:11:52.655Z,22.00
2018-08-09T03:14:20.497Z,22.00
2018-08-09T03:16:48.293Z,22.10
2018-08-09T03:19:16.026Z,22.10
2018-08-09T03:21:43.820Z,22.00
2018-08-09T03:24:23.354Z,21.90
2018-08-09T03:26:51.245Z,21.90
2018-08-09T03:29:19.056Z,21.70
2018-08-09T03:31:56.482Z,21.60
2018-08-09T03:34:24.232Z,21.60
2018-08-09T03:36:52.097Z,21.80
2018-08-09T03:39:30.845Z,21.70
2018-08-09T03:44:51.765Z,21.80
2018-08-09T03:47:19.533Z,21.70
2018-08-09T03:49:47.282Z,21.70
2018-08-09T03:52:15.029Z,21.70
2018-08-09T03:54:42.888Z,21.90
2018-08-09T03:57:10.636Z,21.70
2018-08-09T03:59:38.391Z,21.60
2018-08-09T04:02:06.409Z,21.60
2018-08-09T04:04:34.172Z,21.40
2018-08-09T04:07:02.002Z,21.20
2018-08-09T04:09:29.760Z,21.10
2018-08-09T04:11:57.597Z,21.10
2018-08-09T04:14:25.317Z,21.00
2018-08-09T04:16:54.020Z,21.00
2018-08-09T04:19:34.344Z,21.00
2018-08-09T04:22:02.126Z,20.90
2018-08-09T04:24:29.968Z,20.80
2018-08-09T04:26:57.784Z,20.70
2018-08-09T04:29:25.561Z,20.70
2018-08-09T04:32:04.783Z,20.70
2018-08-09T04:34:39.256Z,20.70
2018-08-09T04:37:14.157Z,20.70
2018-08-09T04:39:41.916Z,20.70
2018-08-09T04:42:09.716Z,20.70
2018-08-09T04:44:37.528Z,20.70
2018-08-09T04:47:05.305Z,20.70
2018-08-09T04:49:39.036Z,20.70
2018-08-09T04:52:06.852Z,20.70
2018-08-09T04:54:34.713Z,20.80
2018-08-09T04:57:16.775Z,20.70
2018-08-09T04:59:44.604Z,20.70
2018-08-09T05:02:19.409Z,20.80
2018-08-09T05:04:54.994Z,20.80
2018-08-09T05:07:31.361Z,20.80
2018-08-09T05:10:17.309Z,20.90
2018-08-09T05:12:55.633Z,21.00
2018-08-09T05:15:34.292Z,21.10
2018-08-09T05:18:14.265Z,21.10
2018-08-09T05:20:52.239Z,21.20
2018-08-09T05:23:34.136Z,21.20
2018-08-09T05:26:15.419Z,21.50
2018-08-09T05:28:54.012Z,21.50
2018-08-09T05:31:35.216Z,21.60
2018-08-09T05:34:15.255Z,21.60
2018-08-09T05:36:42.988Z,21.70
2018-08-09T05:39:11.692Z,21.90
2018-08-09T05:41:39.749Z,22.00
2018-08-09T05:44:07.641Z,22.10
2018-08-09T05:46:48.048Z,22.10
2018-08-09T05:49:15.841Z,22.20
2018-08-09T05:51:43.611Z,22.40
2018-08-09T05:54:23.806Z,22.60
2018-08-09T05:57:03.917Z,22.70
2018-08-09T05:59:44.229Z,22.90
2018-08-09T06:02:29.800Z,23.30
2018-08-09T06:05:10.783Z,23.30
2018-08-09T06:07:51.157Z,23.50
2018-08-09T06:10:31.807Z,23.70
2018-08-09T06:13:10.934Z,24.00
2018-08-09T06:18:33.712Z,24.20
2018-08-09T06:21:01.641Z,24.30
2018-08-09T06:23:29.492Z,24.60
2018-08-09T06:25:57.324Z,24.80
2018-08-09T06:28:25.190Z,25.30
2018-08-09T06:30:53.224Z,25.50
2018-08-09T06:33:21.297Z,25.80
2018-08-09T06:35:49.309Z,26.10
2018-08-09T06:38:17.180Z,26.90
2018-08-09T06:40:55.092Z,27.00
2018-08-09T06:43:22.896Z,27.20
2018-08-09T06:45:50.652Z,27.90
2018-08-09T06:48:18.417Z,28.70
2018-08-09T06:50:46.245Z,29.20
2018-08-09T06:53:14.048Z,29.20
2018-08-09T06:55:41.810Z,29.30
2018-08-09T06:58:09.569Z,29.40
2018-08-09T07:00:37.516Z,29.90
2018-08-09T07:03:05.381Z,29.80
2018-08-09T07:05:33.222Z,29.80
2018-08-09T07:08:01.012Z,29.70
2018-08-09T07:10:28.912Z,29.90
2018-08-09T07:13:03.132Z,30.00
2018-08-09T07:15:30.924Z,30.20
2018-08-09T07:17:59.772Z,30.50
2018-08-09T07:20:27.611Z,30.60
2018-08-09T07:22:55.429Z,30.70
2018-08-09T07:25:23.288Z,30.60
2018-08-09T07:27:51.117Z,30.70
2018-08-09T07:30:18.952Z,30.50
2018-08-09T07:32:46.733Z,30.40
2018-08-09T07:35:14.553Z,30.30
2018-08-09T07:37:42.341Z,30.60
2018-08-09T07:40:11.695Z,30.20
2018-08-09T07:42:40.109Z,30.20
2018-08-09T07:45:09.784Z,30.00
2018-08-09T07:47:37.626Z,30.00
2018-08-09T07:50:06.194Z,30.10
2018-08-09T07:52:34.015Z,30.20
2018-08-09T07:55:13.523Z,30.30
2018-08-09T07:57:41.852Z,30.10
2018-08-09T08:00:11.275Z,30.10
2018-08-09T08:02:39.300Z,30.10
2018-08-09T08:05:07.305Z,30.00
2018-08-09T08:07:35.393Z,29.90
2018-08-09T08:10:03.489Z,30.00
2018-08-09T08:12:31.292Z,30.20
2018-08-09T08:14:59.125Z,30.20
2018-08-09T08:17:26.976Z,30.20
2018-08-09T08:19:54.740Z,30.10
2018-08-09T08:22:22.611Z,30.00
2018-08-09T08:24:50.408Z,30.10
2018-08-09T08:27:18.260Z,29.80
2018-08-09T08:29:56.637Z,29.50
2018-08-09T08:32:34.851Z,29.40
2018-08-09T08:35:17.357Z,29.30
2018-08-09T08:43:32.356Z,28.90
2018-08-09T08:46:00.150Z,28.70
2018-08-09T08:48:27.979Z,28.70
2018-08-09T08:50:55.768Z,28.70
2018-08-09T08:53:23.565Z,28.80
2018-08-09T08:55:51.402Z,28.90
2018-08-09T08:58:19.195Z,28.90
2018-08-09T09:00:47.077Z,28.70
2018-08-09T09:03:14.883Z,28.90
2018-08-09T09:05:42.722Z,29.20
2018-08-09T09:08:10.580Z,29.30
2018-08-09T09:10:39.430Z,29.70
2018-08-09T09:13:07.611Z,30.00
2018-08-09T09:15:35.480Z,30.00
2018-08-09T09:18:15.227Z,30.60
2018-08-09T09:20:43.117Z,30.80
2018-08-09T09:23:10.934Z,31.10
2018-08-09T09:25:38.709Z,30.90
2018-08-09T09:28:06.553Z,31.70
2018-08-09T09:30:34.337Z,32.10
2018-08-09T09:33:02.101Z,32.20
2018-08-09T09:35:29.912Z,32.70
2018-08-09T09:38:07.453Z,32.80
2018-08-09T09:40:42.781Z,33.50
2018-08-09T09:46:03.616Z,33.80
2018-08-09T09:48:31.484Z,33.90
2018-08-09T09:50:59.257Z,34.40
2018-08-09T09:53:27.037Z,34.50
2018-08-09T09:55:54.857Z,34.60
2018-08-09T09:58:22.721Z,34.90
2018-08-09T10:00:56.092Z,34.80
2018-08-09T10:03:25.215Z,35.40
2018-08-09T10:05:52.988Z,35.30
2018-08-09T10:08:20.745Z,35.50
2018-08-09T10:10:48.596Z,35.80
2018-08-09T10:13:16.389Z,36.10
2018-08-09T10:15:55.848Z,36.10
2018-08-09T10:18:23.620Z,36.00
2018-08-09T10:20:51.372Z,36.20
2018-08-09T10:23:19.188Z,36.20
2018-08-09T10:25:47.024Z,36.30
2018-08-09T10:28:14.808Z,36.60
2018-08-09T10:30:42.561Z,37.00
2018-08-09T10:33:10.312Z,37.20
2018-08-09T10:35:38.137Z,37.20
2018-08-09T10:38:05.884Z,37.10
2018-08-09T10:40:33.900Z,37.20
2018-08-09T10:43:01.978Z,37.40
2018-08-09T10:45:29.749Z,37.40
2018-08-09T10:47:57.497Z,37.60
2018-08-09T10:50:25.277Z,37.80
2018-08-09T10:52:53.352Z,37.80
2018-08-09T10:55:21.133Z,37.80
2018-08-09T10:57:48.928Z,38.10
2018-08-09T11:00:16.728Z,38.30
2018-08-09T11:02:44.688Z,38.70
2018-08-09T11:05:12.508Z,38.80
2018-08-09T11:07:40.268Z,39.00
2018-08-09T11:10:08.716Z,39.10
2018-08-09T11:12:36.472Z,39.60
2018-08-09T11:15:06.789Z,39.60
2018-08-09T11:17:34.569Z,39.60
2018-08-09T11:20:02.497Z,39.70
2018-08-09T11:22:37.092Z,40.30
2018-08-09T11:25:05.909Z,40.10
2018-08-09T11:27:33.924Z,40.10
2018-08-09T11:30:01.811Z,40.30
2018-08-09T11:32:29.667Z,40.30
2018-08-09T11:34:57.464Z,40.70
2018-08-09T11:37:25.201Z,40.60
2018-08-09T11:39:53.073Z,41.10
2018-08-09T11:42:20.912Z,41.00
2018-08-09T11:44:48.720Z,41.00
2018-08-09T11:47:16.544Z,41.10
2018-08-09T11:49:44.292Z,41.10
2018-08-09T11:52:12.065Z,41.00
2018-08-09T11:54:39.863Z,41.20
2018-08-09T11:57:07.661Z,41.40
2018-08-09T11:59:41.476Z,41.40
2018-08-09T12:02:12.597Z,41.00
2018-08-09T12:04:40.497Z,40.80
2018-08-09T12:07:14.365Z,41.20
2018-08-09T12:09:42.245Z,40.90
2018-08-09T12:12:10.029Z,40.70
2018-08-09T12:14:37.821Z,40.80
2018-08-09T12:17:05.632Z,41.20
2018-08-09T12:19:33.394Z,41.20
2018-08-09T12:24:40.295Z,41.10
2018-08-09T12:27:08.092Z,40.90
2018-08-09T12:29:35.898Z,41.10
2018-08-09T12:32:03.731Z,41.30
2018-08-09T12:34:31.584Z,41.50
2018-08-09T12:36:59.413Z,42.00
2018-08-09T12:39:27.332Z,41.50
2018-08-09T12:41:55.194Z,41.40
2018-08-09T12:44:23.024Z,41.20
2018-08-09T12:46:50.853Z,41.60
2018-08-09T12:49:18.636Z,41.70
2018-08-09T12:51:52.181Z,41.70
2018-08-09T12:54:20.049Z,41.40
2018-08-09T12:56:53.336Z,41.20
2018-08-09T12:59:21.196Z,41.60
2018-08-09T13:01:54.576Z,41.50
2018-08-09T13:04:24.036Z,41.50
2018-08-09T13:06:55.430Z,41.60
2018-08-09T13:09:23.248Z,41.70
2018-08-09T13:11:51.016Z,42.00
2018-08-09T13:14:18.917Z,42.10
2018-08-09T13:16:46.800Z,42.20
2018-08-09T13:19:14.620Z,42.30
2018-08-09T13:21:42.448Z,42.40
2018-08-09T13:24:10.240Z,42.60
2018-08-09T13:26:38.097Z,42.60
2018-08-09T13:29:05.985Z,42.70
2018-08-09T13:31:33.885Z,42.80
2018-08-09T13:34:01.670Z,42.80
2018-08-09T13:36:29.557Z,42.60
2018-08-09T13:38:57.353Z,42.40
2018-08-09T13:41:25.101Z,42.20
2018-08-09T13:43:52.908Z,42.00
2018-08-09T13:46:20.744Z,41.80
2018-08-09T13:48:48.565Z,41.40
2018-08-09T13:51:16.417Z,41.00
2018-08-09T13:53:44.270Z,40.50
2018-08-09T13:56:12.077Z,39.80
2018-08-09T13:58:39.860Z,39.20
2018-08-09T14:01:07.709Z,38.60
2018-08-09T14:03:35.492Z,38.10
2018-08-09T14:06:03.353Z,37.80
2018-08-09T14:08:34.204Z,37.60
2018-08-09T14:11:16.460Z,37.30
2018-08-09T14:13:44.254Z,36.80
2018-08-09T14:16:12.128Z,36.40
2018-08-09T14:18:51.313Z,36.00
2018-08-09T14:21:19.249Z,35.70
2018-08-09T14:23:47.056Z,35.30
2018-08-09T14:26:14.965Z,35.10
2018-08-09T14:28:42.829Z,34.70
2018-08-09T14:31:10.649Z,34.50
2018-08-09T14:33:38.489Z,34.20
2018-08-09T14:36:09.554Z,34.00
2018-08-09T14:38:37.447Z,34.10
2018-08-09T14:41:05.353Z,34.20
2018-08-09T14:43:33.131Z,34.10
2018-08-09T14:46:01.002Z,34.20
2018-08-09T14:48:28.894Z,34.10
2018-08-09T14:50:56.661Z,34.10
2018-08-09T14:53:24.477Z,34.00
2018-08-09T14:55:52.315Z,33.90
2018-08-09T14:58:20.176Z,33.80
2018-08-09T15:00:47.989Z,33.70
2018-08-09T15:03:15.837Z,33.70
2018-08-09T15:05:43.756Z,33.60
2018-08-09T15:08:11.485Z,33.50
2018-08-09T15:10:39.389Z,33.40
2018-08-09T15:13:07.297Z,33.50
2018-08-09T15:15:35.287Z,33.50
2018-08-09T15:18:14.649Z,33.40
2018-08-09T15:20:42.577Z,33.30
2018-08-09T15:23:10.373Z,33.10
2018-08-09T15:25:38.232Z,33.00
2018-08-09T15:28:06.325Z,33.00
2018-08-09T15:30:34.137Z,32.80
2018-08-09T15:33:01.904Z,32.80
2018-08-09T15:35:29.785Z,32.70
2018-08-09T15:37:57.753Z,32.60
2018-08-09T15:40:25.408Z,32.40
2018-08-09T15:42:53.258Z,32.40
2018-08-09T15:45:21.045Z,32.10
2018-08-09T15:47:48.983Z,32.00
2018-08-09T15:50:18.252Z,31.90
2018-08-09T15:52:46.154Z,31.80
2018-08-09T15:55:15.207Z,31.70
2018-08-09T15:57:43.169Z,31.60
2018-08-09T16:00:14.056Z,31.40
2018-08-09T16:02:41.936Z,31.20
2018-08-09T16:05:09.937Z,31.10
2018-08-09T16:07:37.877Z,30.90
2018-08-09T16:10:08.539Z,30.80
2018-08-09T16:12:36.765Z,30.80
2018-08-09T16:15:05.482Z,30.70
2018-08-09T16:17:33.644Z,30.60
2018-08-09T16:20:01.480Z,30.70
2018-08-09T16:22:29.389Z,30.60
2018-08-09T16:24:57.244Z,30.40
2018-08-09T16:27:25.060Z,30.40
2018-08-09T16:29:53.010Z,30.30
2018-08-09T16:32:20.810Z,30.20
2018-08-09T16:34:48.695Z,30.00
2018-08-09T16:37:16.576Z,29.70
2018-08-09T16:39:44.400Z,29.60
2018-08-09T16:42:12.232Z,29.50
2018-08-09T16:44:40.133Z,29.30
2018-08-09T16:47:08.015Z,29.10
2018-08-09T16:49:35.848Z,29.00
2018-08-09T16:52:04.145Z,29.00
2018-08-09T16:54:32.022Z,29.00
2018-08-09T16:56:59.940Z,28.90
2018-08-09T16:59:27.696Z,28.70
2018-08-09T17:01:55.474Z,28.60
2018-08-09T17:04:23.409Z,28.50
2018-08-09T17:06:51.237Z,28.20
2018-08-09T17:09:19.081Z,28.00
2018-08-09T17:11:47.000Z,27.90
2018-08-09T17:14:15.675Z,27.80
2018-08-09T17:16:44.241Z,27.50
2018-08-09T17:19:12.142Z,27.40
2018-08-09T17:21:40.024Z,27.30
2018-08-09T17:24:09.124Z,27.20
2018-08-09T17:26:37.215Z,27.20
2018-08-09T17:29:05.877Z,27.10
2018-08-09T17:31:33.748Z,27.00
2018-08-09T17:34:01.564Z,26.90
2018-08-09T17:36:29.697Z,26.80
2018-08-09T17:38:57.589Z,26.80
2018-08-09T17:41:25.395Z,26.70
2018-08-09T17:43:53.540Z,26.60
2018-08-09T17:46:21.410Z,26.50
2018-08-09T17:48:49.349Z,26.50
2018-08-09T17:51:17.471Z,26.50
2018-08-09T17:53:45.536Z,26.50
2018-08-09T17:56:13.372Z,26.60
2018-08-09T17:58:41.169Z,26.50
2018-08-09T18:01:09.205Z,26.50
2018-08-09T18:03:36.968Z,26.60
2018-08-09T18:06:04.911Z,26.60
2018-08-09T18:08:32.992Z,26.60
2018-08-09T18:11:00.784Z,26.50
2018-08-09T18:13:28.898Z,26.50
2018-08-09T18:15:56.737Z,26.50
2018-08-09T18:18:24.575Z,26.60
2018-08-09T18:20:52.417Z,26.50
2018-08-09T18:23:20.237Z,26.50
2018-08-09T18:25:48.024Z,26.40
2018-08-09T18:28:15.840Z,26.20
2018-08-09T18:30:43.685Z,26.30
2018-08-09T18:33:11.523Z,26.20
2018-08-09T18:35:39.344Z,26.10
2018-08-09T18:38:07.181Z,26.00
2018-08-09T18:40:35.076Z,25.90
2018-08-09T18:43:03.016Z,25.80
2018-08-09T18:45:30.793Z,25.70
2018-08-09T18:47:58.622Z,25.70
2018-08-09T18:50:28.849Z,25.60
2018-08-09T18:52:56.789Z,25.60
2018-08-09T18:55:24.648Z,25.60
2018-08-09T18:57:52.576Z,25.40
2018-08-09T19:00:21.775Z,25.50
2018-08-09T19:02:50.034Z,25.40
2018-08-09T19:05:17.922Z,25.40
2018-08-09T19:07:45.999Z,25.40
2018-08-09T19:10:20.568Z,25.40
2018-08-09T19:12:48.473Z,25.30
2018-08-09T19:15:16.380Z,25.30
2018-08-09T19:17:44.325Z,25.20
2018-08-09T19:20:24.061Z,25.20
2018-08-09T19:22:52.079Z,25.10
2018-08-09T19:25:20.024Z,25.10
2018-08-09T19:27:47.861Z,25.10
2018-08-09T19:30:17.249Z,25.00
2018-08-09T19:32:45.267Z,25.00
2018-08-09T19:35:14.608Z,25.00
2018-08-09T19:37:42.572Z,25.00
2018-08-09T19:40:13.046Z,24.90
2018-08-09T19:42:41.037Z,24.90
2018-08-09T19:45:11.565Z,24.90
2018-08-09T19:47:39.672Z,24.90
2018-08-09T19:50:09.593Z,24.80
2018-08-09T19:52:37.613Z,24.70
2018-08-09T19:55:06.360Z,24.70
2018-08-09T19:57:34.173Z,24.70
2018-08-09T20:00:02.279Z,24.70
2018-08-09T20:02:30.069Z,24.60
2018-08-09T20:04:57.917Z,24.60
2018-08-09T20:07:25.773Z,24.50
2018-08-09T20:09:53.589Z,24.40
2018-08-09T20:12:21.425Z,24.30
2018-08-09T20:14:49.245Z,24.30
2018-08-09T20:17:17.123Z,24.20
2018-08-09T20:19:44.852Z,24.20
2018-08-09T20:22:16.565Z,24.20
2018-08-09T20:24:44.468Z,24.10
2018-08-09T20:27:12.607Z,24.00
2018-08-09T20:29:40.479Z,24.00
2018-08-09T20:32:08.287Z,23.90
2018-08-09T20:34:36.084Z,23.90
2018-08-09T20:37:03.928Z,23.80
2018-08-09T20:39:31.904Z,23.70
2018-08-09T20:44:48.585Z,23.70
2018-08-09T20:47:16.445Z,23.60
2018-08-09T20:49:44.273Z,23.50
2018-08-09T20:52:12.023Z,23.30
2018-08-09T20:54:39.968Z,23.30
2018-08-09T20:57:07.744Z,23.20
2018-08-09T20:59:35.549Z,23.10
2018-08-09T21:02:03.458Z,23.10
2018-08-09T21:04:31.232Z,23.00
2018-08-09T21:06:59.048Z,23.00
2018-08-09T21:09:26.868Z,22.90
2018-08-09T21:12:09.050Z,22.90
2018-08-09T21:14:37.155Z,22.90
2018-08-09T21:17:04.925Z,22.80
2018-08-09T21:19:32.810Z,22.80
2018-08-09T21:22:00.692Z,22.80
2018-08-09T21:24:28.592Z,22.90
2018-08-09T21:26:56.433Z,22.90
2018-08-09T21:29:36.850Z,22.90
2018-08-09T21:32:10.205Z,22.70
2018-08-09T21:34:38.032Z,22.70
2018-08-09T21:37:05.784Z,22.60
2018-08-09T21:39:33.541Z,22.60
2018-08-09T21:42:10.929Z,22.50
2018-08-09T21:44:38.905Z,22.30
2018-08-09T21:47:06.696Z,22.40
2018-08-09T21:49:34.563Z,22.30
2018-08-09T21:52:02.416Z,22.30
2018-08-09T21:54:30.250Z,22.20
2018-08-09T21:56:58.073Z,22.20
2018-08-09T21:59:25.884Z,22.30
2018-08-09T22:01:53.708Z,22.20
2018-08-09T22:04:21.524Z,22.00
2018-08-09T22:06:54.913Z,22.00
2018-08-09T22:09:28.189Z,22.00
2018-08-09T22:12:01.520Z,21.90
2018-08-09T22:14:34.728Z,22.00
2018-08-09T22:17:08.137Z,21.90
2018-08-09T22:19:41.565Z,21.90
2018-08-09T22:22:11.045Z,21.90
2018-08-09T22:24:44.477Z,21.90
2018-08-09T22:27:12.296Z,21.90
2018-08-09T22:29:40.103Z,22.00
2018-08-09T22:32:07.900Z,22.00
2018-08-09T22:34:35.707Z,22.00
2018-08-09T22:37:11.382Z,22.00
2018-08-09T22:39:49.592Z,22.10
2018-08-09T22:42:25.725Z,22.10
2018-08-09T22:44:53.784Z,22.10
2018-08-09T22:47:21.588Z,22.10
2018-08-09T22:49:49.413Z,22.10
2018-08-09T22:52:17.204Z,22.00
2018-08-09T22:54:44.990Z,22.10
2018-08-09T22:57:12.736Z,22.10
2018-08-09T22:59:40.532Z,22.00
2018-08-09T23:02:18.449Z,22.00
2018-08-09T23:04:46.248Z,22.10
2018-08-09T23:07:14.065Z,22.10
2018-08-09T23:09:41.812Z,22.10
2018-08-09T23:12:09.665Z,22.10
2018-08-09T23:14:37.470Z,22.00
2018-08-09T23:17:05.303Z,22.00
2018-08-09T23:19:33.232Z,22.00
2018-08-09T23:22:01.048Z,22.00
2018-08-09T23:24:28.848Z,21.90
2018-08-09T23:26:57.508Z,21.80
2018-08-09T23:29:25.283Z,21.70
2018-08-09T23:31:53.093Z,21.80
2018-08-09T23:34:24.300Z,21.70
2018-08-09T23:36:52.089Z,21.70
2018-08-09T23:39:19.845Z,21.70
2018-08-09T23:41:47.612Z,21.70
2018-08-09T23:44:15.364Z,21.70
2018-08-09T23:46:43.120Z,21.70
2018-08-09T23:49:10.978Z,21.70
2018-08-09T23:51:38.708Z,21.70
2018-08-09T23:54:06.508Z,21.70
2018-08-09T23:56:34.321Z,21.70
2018-08-09T23:59:02.134Z,21.70
